createdAt,value
2022-10-13T00:02:57.715Z,8.40
2022-10-13T00:12:57.458Z,9.10
2022-10-13T00:22:57.192Z,9.50
2022-10-13T00:32:56.965Z,10.20
2022-10-13T00:42:56.718Z,8.80
2022-10-13T00:52:56.469Z,8.80
2022-10-13T01:02:56.209Z,8.90
2022-10-13T01:12:55.857Z,8.60
2022-10-13T01:22:55.574Z,9.20
2022-10-13T01:32:55.290Z,8.80
2022-10-13T01:42:55.076Z,9.30
2022-10-13T01:52:55.116Z,9.00
2022-10-13T02:02:54.535Z,9.40
2022-10-13T02:12:54.699Z,9.30
2022-10-13T02:22:54.196Z,9.30
2022-10-13T02:32:53.817Z,10.30
2022-10-13T02:42:53.761Z,9.10
2022-10-13T02:52:53.728Z,9.80
2022-10-13T03:02:53.197Z,9.40
2022-10-13T03:12:53.134Z,9.10
2022-10-13T03:22:52.800Z,9.60
2022-10-13T03:32:53.058Z,9.50
2022-10-13T03:42:52.589Z,9.50
2022-10-13T03:52:52.441Z,10.00
2022-10-13T04:02:52.078Z,9.40
2022-10-13T04:12:51.911Z,9.20
2022-10-13T04:22:51.849Z,9.00
2022-10-13T04:32:51.497Z,9.20
2022-10-13T04:42:51.312Z,9.20
2022-10-13T04:52:51.204Z,8.60
2022-10-13T05:02:51.161Z,9.30
2022-10-13T05:12:50.841Z,10.00
2022-10-13T05:22:50.662Z,9.10
2022-10-13T05:32:53.811Z,9.50
2022-10-13T05:42:50.271Z,9.10
2022-10-13T05:52:50.092Z,8.50
2022-10-13T06:02:49.951Z,8.90
2022-10-13T06:12:49.761Z,8.50
2022-10-13T06:22:49.616Z,9.00
2022-10-13T06:32:49.426Z,8.50
2022-10-13T06:42:49.368Z,9.40
2022-10-13T06:52:49.005Z,9.50
2022-10-13T07:02:48.789Z,8.80
2022-10-13T07:12:48.710Z,8.60
2022-10-13T07:22:48.330Z,8.70
2022-10-13T07:32:48.135Z,8.40
2022-10-13T07:42:47.945Z,8.50
2022-10-13T07:52:47.958Z,8.60
2022-10-13T08:02:47.680Z,8.70
2022-10-13T08:12:47.506Z,8.30
2022-10-13T08:22:47.427Z,8.60
2022-10-13T08:32:47.646Z,9.00
2022-10-13T08:42:47.233Z,9.20
2022-10-13T08:52:47.133Z,9.10
2022-10-13T09:02:47.018Z,9.00
2022-10-13T09:12:46.978Z,9.50
2022-10-13T09:22:47.186Z,9.40
2022-10-13T09:32:46.973Z,9.70
2022-10-13T09:42:47.163Z,9.10
2022-10-13T09:52:47.051Z,9.20
2022-10-13T10:02:47.258Z,8.90
2022-10-13T10:12:52.157Z,8.80
2022-10-13T10:22:51.735Z,8.30
2022-10-13T10:32:51.411Z,8.50
2022-10-13T10:42:52.240Z,8.30
2022-10-13T10:52:50.377Z,7.60
2022-10-13T11:02:49.921Z,8.10
2022-10-13T11:12:49.539Z,7.20
2022-10-13T11:22:49.045Z,7.80
2022-10-13T11:32:48.582Z,8.90
2022-10-13T11:42:54.427Z,8.10
2022-10-13T11:52:53.300Z,8.20
2022-10-13T12:02:52.811Z,7.70
2022-10-13T12:12:52.326Z,7.60
2022-10-13T12:22:51.900Z,7.40
2022-10-13T12:32:51.427Z,7.80
2022-10-13T12:42:50.987Z,8.30
2022-10-13T12:52:50.556Z,8.10
2022-10-13T13:02:50.568Z,8.70
2022-10-13T13:12:55.626Z,8.60
2022-10-13T13:22:55.205Z,9.10
2022-10-13T13:32:54.772Z,9.90
2022-10-13T13:42:54.320Z,10.40
2022-10-13T13:52:53.867Z,10.10
2022-10-13T14:02:53.445Z,10.10
2022-10-13T14:12:52.992Z,10.00
2022-10-13T14:22:52.715Z,10.40
2022-10-13T14:32:52.273Z,10.30
2022-10-13T14:42:57.318Z,10.70
2022-10-13T14:52:56.867Z,9.70
2022-10-13T15:02:56.600Z,9.30
2022-10-13T15:12:56.006Z,10.00
2022-10-13T15:22:55.559Z,7.50
2022-10-13T15:32:55.259Z,8.80
2022-10-13T15:42:54.666Z,8.00
2022-10-13T15:52:54.248Z,9.90
2022-10-13T16:02:54.125Z,8.90
2022-10-13T16:12:59.193Z,8.90
2022-10-13T16:22:58.847Z,8.90
2022-10-13T16:32:58.296Z,9.60
2022-10-13T16:42:57.941Z,8.70
2022-10-13T16:52:58.005Z,8.80
2022-10-13T17:02:57.203Z,9.40
2022-10-13T17:12:56.829Z,8.70
2022-10-13T17:22:56.494Z,8.70
2022-10-13T17:32:58.630Z,10.00
2022-10-13T17:43:01.490Z,9.60
2022-10-13T17:53:01.229Z,9.20
2022-10-13T18:03:00.769Z,9.90
2022-10-13T18:13:00.708Z,9.80
2022-10-13T18:23:00.156Z,11.10
2022-10-13T18:32:59.802Z,10.90
2022-10-13T18:42:59.334Z,11.30
2022-10-13T18:52:58.809Z,12.60
2022-10-13T19:02:58.455Z,9.30
2022-10-13T19:12:58.101Z,10.50
2022-10-13T19:23:03.417Z,11.70
2022-10-13T19:33:02.881Z,7.80
2022-10-13T19:43:02.488Z,9.70
2022-10-13T19:53:02.124Z,9.80
2022-10-13T20:03:01.788Z,10.30
2022-10-13T20:13:01.398Z,10.70
2022-10-13T20:23:01.017Z,10.70
2022-10-13T20:33:00.700Z,10.10
2022-10-13T20:43:00.283Z,10.20
2022-10-13T20:52:59.908Z,10.50
2022-10-13T21:03:02.004Z,11.10
2022-10-13T21:12:59.166Z,12.00
2022-10-13T21:22:58.905Z,11.90
2022-10-13T21:32:59.021Z,9.40
2022-10-13T21:42:58.874Z,10.20
2022-10-13T21:52:58.828Z,9.90
2022-10-13T22:02:59.741Z,9.70
2022-10-13T22:13:00.112Z,9.70
2022-10-13T22:22:58.811Z,9.80
2022-10-13T22:32:58.860Z,10.50
2022-10-13T22:42:59.113Z,10.50
2022-10-13T22:52:58.838Z,10.30
2022-10-13T23:02:58.985Z,10.90
2022-10-13T23:12:58.809Z,11.50
2022-10-13T23:22:59.099Z,9.90
2022-10-13T23:32:59.030Z,8.60
2022-10-13T23:42:59.203Z,8.20
2022-10-13T23:52:58.878Z,8.10
